sensor_id;sensor_type;location;lat;lon;timestamp;P1;durP1;ratioP1;P2;durP2;ratioP2
19167;SDS011;9716;53.114;18.040;2023-06-10T00:00:52;6.22;;;2.83;;
19167;SDS011;9716;53.114;18.040;2023-06-10T00:03:40;4.55;;;2.28;;
19167;SDS011;9716;53.114;18.040;2023-06-10T00:06:10;7.05;;;2.78;;
19167;SDS011;9716;53.114;18.040;2023-06-10T00:08:39;5.28;;;2.85;;
19167;SDS011;9716;53.114;18.040;2023-06-10T00:11:07;8.40;;;2.58;;
19167;SDS011;9716;53.114;18.040;2023-06-10T00:13:37;5.63;;;2.40;;
19167;SDS011;9716;53.114;18.040;2023-06-10T00:16:06;14.63;;;2.72;;
19167;SDS011;9716;53.114;18.040;2023-06-10T00:18:35;7.00;;;2.67;;
19167;SDS011;9716;53.114;18.040;2023-06-10T00:21:05;4.00;;;2.72;;
19167;SDS011;9716;53.114;18.040;2023-06-10T00:23:33;7.05;;;2.70;;
19167;SDS011;9716;53.114;18.040;2023-06-10T00:26:04;6.07;;;2.83;;
19167;SDS011;9716;53.114;18.040;2023-06-10T00:28:33;4.35;;;2.53;;
19167;SDS011;9716;53.114;18.040;2023-06-10T00:31:01;4.30;;;2.40;;
19167;SDS011;9716;53.114;18.040;2023-06-10T00:33:32;9.48;;;2.58;;
19167;SDS011;9716;53.114;18.040;2023-06-10T00:36:00;5.78;;;2.85;;
19167;SDS011;9716;53.114;18.040;2023-06-10T00:38:29;4.63;;;2.78;;
19167;SDS011;9716;53.114;18.040;2023-06-10T00:40:58;7.82;;;2.95;;
19167;SDS011;9716;53.114;18.040;2023-06-10T00:43:27;4.13;;;2.53;;
19167;SDS011;9716;53.114;18.040;2023-06-10T00:45:55;5.32;;;2.53;;
19167;SDS011;9716;53.114;18.040;2023-06-10T00:48:24;7.15;;;2.55;;
19167;SDS011;9716;53.114;18.040;2023-06-10T00:50:54;5.25;;;2.80;;
19167;SDS011;9716;53.114;18.040;2023-06-10T00:53:23;4.78;;;2.58;;
19167;SDS011;9716;53.114;18.040;2023-06-10T00:55:52;7.72;;;2.80;;
19167;SDS011;9716;53.114;18.040;2023-06-10T00:58:22;6.38;;;2.85;;
19167;SDS011;9716;53.114;18.040;2023-06-10T01:00:52;10.68;;;2.92;;
19167;SDS011;9716;53.114;18.040;2023-06-10T01:03:20;6.57;;;3.22;;
19167;SDS011;9716;53.114;18.040;2023-06-10T01:05:53;6.10;;;3.28;;
19167;SDS011;9716;53.114;18.040;2023-06-10T01:08:32;3.92;;;2.30;;
19167;SDS011;9716;53.114;18.040;2023-06-10T01:11:07;4.72;;;3.38;;
19167;SDS011;9716;53.114;18.040;2023-06-10T01:13:41;5.40;;;2.67;;
19167;SDS011;9716;53.114;18.040;2023-06-10T01:16:11;12.73;;;2.30;;
19167;SDS011;9716;53.114;18.040;2023-06-10T01:18:40;6.05;;;2.42;;
19167;SDS011;9716;53.114;18.040;2023-06-10T01:21:13;6.38;;;2.63;;
19167;SDS011;9716;53.114;18.040;2023-06-10T01:23:43;8.45;;;3.38;;
19167;SDS011;9716;53.114;18.040;2023-06-10T01:26:12;7.35;;;3.35;;
19167;SDS011;9716;53.114;18.040;2023-06-10T01:28:43;5.25;;;2.75;;
19167;SDS011;9716;53.114;18.040;2023-06-10T01:31:16;4.72;;;2.78;;
19167;SDS011;9716;53.114;18.040;2023-06-10T01:33:52;4.75;;;2.42;;
19167;SDS011;9716;53.114;18.040;2023-06-10T01:36:22;8.48;;;3.38;;
19167;SDS011;9716;53.114;18.040;2023-06-10T01:38:53;3.28;;;2.40;;
19167;SDS011;9716;53.114;18.040;2023-06-10T01:41:22;16.67;;;2.72;;
19167;SDS011;9716;53.114;18.040;2023-06-10T01:43:51;4.60;;;2.45;;
19167;SDS011;9716;53.114;18.040;2023-06-10T01:46:23;4.03;;;3.00;;
19167;SDS011;9716;53.114;18.040;2023-06-10T01:48:51;4.95;;;2.72;;
19167;SDS011;9716;53.114;18.040;2023-06-10T01:51:20;11.10;;;3.30;;
19167;SDS011;9716;53.114;18.040;2023-06-10T01:53:49;7.13;;;2.85;;
19167;SDS011;9716;53.114;18.040;2023-06-10T01:56:18;9.30;;;3.72;;
19167;SDS011;9716;53.114;18.040;2023-06-10T01:58:47;8.18;;;2.55;;
19167;SDS011;9716;53.114;18.040;2023-06-10T02:01:16;3.50;;;2.33;;
19167;SDS011;9716;53.114;18.040;2023-06-10T02:03:45;5.57;;;3.10;;
19167;SDS011;9716;53.114;18.040;2023-06-10T02:06:13;5.53;;;2.05;;
19167;SDS011;9716;53.114;18.040;2023-06-10T02:08:42;6.18;;;2.78;;
19167;SDS011;9716;53.114;18.040;2023-06-10T02:11:12;5.68;;;3.20;;
19167;SDS011;9716;53.114;18.040;2023-06-10T02:13:40;4.38;;;2.40;;
19167;SDS011;9716;53.114;18.040;2023-06-10T02:16:09;6.32;;;2.95;;
19167;SDS011;9716;53.114;18.040;2023-06-10T02:18:41;8.23;;;2.45;;
19167;SDS011;9716;53.114;18.040;2023-06-10T02:21:10;6.10;;;3.25;;
19167;SDS011;9716;53.114;18.040;2023-06-10T02:23:39;6.97;;;2.95;;
19167;SDS011;9716;53.114;18.040;2023-06-10T02:26:08;4.65;;;2.80;;
19167;SDS011;9716;53.114;18.040;2023-06-10T02:28:38;4.38;;;2.72;;
19167;SDS011;9716;53.114;18.040;2023-06-10T02:31:10;3.75;;;2.35;;
19167;SDS011;9716;53.114;18.040;2023-06-10T02:33:39;8.55;;;2.92;;
19167;SDS011;9716;53.114;18.040;2023-06-10T02:36:08;3.60;;;2.50;;
19167;SDS011;9716;53.114;18.040;2023-06-10T02:38:40;7.57;;;3.38;;
19167;SDS011;9716;53.114;18.040;2023-06-10T02:41:08;6.78;;;3.22;;
19167;SDS011;9716;53.114;18.040;2023-06-10T02:43:38;4.40;;;2.17;;
19167;SDS011;9716;53.114;18.040;2023-06-10T02:46:07;7.32;;;3.28;;
19167;SDS011;9716;53.114;18.040;2023-06-10T02:48:40;5.00;;;3.00;;
19167;SDS011;9716;53.114;18.040;2023-06-10T02:51:10;6.15;;;3.15;;
19167;SDS011;9716;53.114;18.040;2023-06-10T02:53:38;5.20;;;2.85;;
19167;SDS011;9716;53.114;18.040;2023-06-10T02:56:08;4.90;;;2.50;;
19167;SDS011;9716;53.114;18.040;2023-06-10T02:58:40;4.78;;;3.05;;
19167;SDS011;9716;53.114;18.040;2023-06-10T03:01:08;6.60;;;2.97;;
19167;SDS011;9716;53.114;18.040;2023-06-10T03:03:37;9.13;;;3.30;;
19167;SDS011;9716;53.114;18.040;2023-06-10T03:06:09;5.47;;;3.15;;
19167;SDS011;9716;53.114;18.040;2023-06-10T03:08:39;17.52;;;3.30;;
19167;SDS011;9716;53.114;18.040;2023-06-10T03:11:07;4.28;;;2.63;;
19167;SDS011;9716;53.114;18.040;2023-06-10T03:13:38;7.50;;;2.15;;
19167;SDS011;9716;53.114;18.040;2023-06-10T03:16:07;6.95;;;2.75;;
19167;SDS011;9716;53.114;18.040;2023-06-10T03:18:36;5.13;;;3.05;;
19167;SDS011;9716;53.114;18.040;2023-06-10T03:21:04;7.70;;;3.63;;
19167;SDS011;9716;53.114;18.040;2023-06-10T03:23:33;11.88;;;3.65;;
19167;SDS011;9716;53.114;18.040;2023-06-10T03:26:02;6.03;;;2.97;;
19167;SDS011;9716;53.114;18.040;2023-06-10T03:28:31;7.40;;;3.28;;
19167;SDS011;9716;53.114;18.040;2023-06-10T03:31:01;7.00;;;2.88;;
19167;SDS011;9716;53.114;18.040;2023-06-10T03:33:30;12.40;;;3.92;;
19167;SDS011;9716;53.114;18.040;2023-06-10T03:35:59;4.10;;;2.78;;
19167;SDS011;9716;53.114;18.040;2023-06-10T03:38:27;5.95;;;2.88;;
19167;SDS011;9716;53.114;18.040;2023-06-10T03:40:56;6.38;;;2.38;;
19167;SDS011;9716;53.114;18.040;2023-06-10T03:43:24;5.05;;;2.85;;
19167;SDS011;9716;53.114;18.040;2023-06-10T03:45:54;6.72;;;2.65;;
19167;SDS011;9716;53.114;18.040;2023-06-10T03:48:24;11.20;;;2.97;;
19167;SDS011;9716;53.114;18.040;2023-06-10T03:50:53;5.15;;;2.97;;
19167;SDS011;9716;53.114;18.040;2023-06-10T03:53:22;6.43;;;2.97;;
19167;SDS011;9716;53.114;18.040;2023-06-10T03:55:50;6.85;;;2.80;;
19167;SDS011;9716;53.114;18.040;2023-06-10T03:58:19;6.07;;;2.90;;
19167;SDS011;9716;53.114;18.040;2023-06-10T04:00:47;9.00;;;2.38;;
19167;SDS011;9716;53.114;18.040;2023-06-10T04:03:16;10.35;;;2.75;;
19167;SDS011;9716;53.114;18.040;2023-06-10T04:05:50;3.65;;;2.55;;
19167;SDS011;9716;53.114;18.040;2023-06-10T04:08:19;9.45;;;2.95;;
19167;SDS011;9716;53.114;18.040;2023-06-10T04:10:48;4.47;;;2.40;;
19167;SDS011;9716;53.114;18.040;2023-06-10T04:13:17;4.47;;;2.78;;
19167;SDS011;9716;53.114;18.040;2023-06-10T04:15:46;13.23;;;3.58;;
19167;SDS011;9716;53.114;18.040;2023-06-10T04:18:14;7.65;;;3.30;;
19167;SDS011;9716;53.114;18.040;2023-06-10T04:20:43;4.10;;;2.50;;
19167;SDS011;9716;53.114;18.040;2023-06-10T04:23:14;4.78;;;2.75;;
19167;SDS011;9716;53.114;18.040;2023-06-10T04:25:42;6.07;;;3.00;;
19167;SDS011;9716;53.114;18.040;2023-06-10T04:28:11;12.68;;;2.85;;
19167;SDS011;9716;53.114;18.040;2023-06-10T04:30:40;8.23;;;2.50;;
19167;SDS011;9716;53.114;18.040;2023-06-10T04:33:09;6.03;;;2.30;;
19167;SDS011;9716;53.114;18.040;2023-06-10T04:35:38;11.23;;;2.20;;
19167;SDS011;9716;53.114;18.040;2023-06-10T04:38:06;3.58;;;2.13;;
19167;SDS011;9716;53.114;18.040;2023-06-10T04:40:36;5.60;;;2.72;;
19167;SDS011;9716;53.114;18.040;2023-06-10T04:43:05;5.93;;;2.45;;
19167;SDS011;9716;53.114;18.040;2023-06-10T04:45:34;6.10;;;2.70;;
19167;SDS011;9716;53.114;18.040;2023-06-10T04:48:02;3.50;;;2.03;;
19167;SDS011;9716;53.114;18.040;2023-06-10T04:50:32;5.03;;;2.30;;
19167;SDS011;9716;53.114;18.040;2023-06-10T04:53:00;9.27;;;2.40;;
19167;SDS011;9716;53.114;18.040;2023-06-10T04:55:29;2.75;;;2.17;;
19167;SDS011;9716;53.114;18.040;2023-06-10T04:57:59;4.47;;;2.38;;
19167;SDS011;9716;53.114;18.040;2023-06-10T05:00:27;10.20;;;3.25;;
19167;SDS011;9716;53.114;18.040;2023-06-10T05:02:56;3.30;;;2.10;;
19167;SDS011;9716;53.114;18.040;2023-06-10T05:05:25;3.65;;;2.38;;
19167;SDS011;9716;53.114;18.040;2023-06-10T05:07:53;10.57;;;2.38;;
19167;SDS011;9716;53.114;18.040;2023-06-10T05:10:23;3.85;;;2.05;;
19167;SDS011;9716;53.114;18.040;2023-06-10T05:12:52;3.30;;;2.20;;
19167;SDS011;9716;53.114;18.040;2023-06-10T05:15:22;5.68;;;2.22;;
19167;SDS011;9716;53.114;18.040;2023-06-10T05:17:51;6.03;;;2.15;;
19167;SDS011;9716;53.114;18.040;2023-06-10T05:20:20;4.22;;;1.92;;
19167;SDS011;9716;53.114;18.040;2023-06-10T05:22:49;2.55;;;2.28;;
19167;SDS011;9716;53.114;18.040;2023-06-10T05:25:17;8.38;;;2.40;;
19167;SDS011;9716;53.114;18.040;2023-06-10T05:27:46;5.80;;;2.28;;
19167;SDS011;9716;53.114;18.040;2023-06-10T05:30:14;3.28;;;1.75;;
19167;SDS011;9716;53.114;18.040;2023-06-10T05:32:45;14.35;;;1.98;;
19167;SDS011;9716;53.114;18.040;2023-06-10T05:35:13;3.15;;;1.85;;
19167;SDS011;9716;53.114;18.040;2023-06-10T05:37:42;3.25;;;1.88;;
19167;SDS011;9716;53.114;18.040;2023-06-10T05:40:11;9.27;;;2.40;;
19167;SDS011;9716;53.114;18.040;2023-06-10T05:42:40;4.95;;;2.13;;
19167;SDS011;9716;53.114;18.040;2023-06-10T05:45:09;6.47;;;2.13;;
19167;SDS011;9716;53.114;18.040;2023-06-10T05:47:38;2.47;;;1.80;;
19167;SDS011;9716;53.114;18.040;2023-06-10T05:50:08;9.45;;;2.50;;
19167;SDS011;9716;53.114;18.040;2023-06-10T05:52:37;3.25;;;1.58;;
19167;SDS011;9716;53.114;18.040;2023-06-10T05:55:07;4.93;;;2.10;;
19167;SDS011;9716;53.114;18.040;2023-06-10T05:57:37;4.70;;;2.03;;
19167;SDS011;9716;53.114;18.040;2023-06-10T06:00:06;4.15;;;2.10;;
19167;SDS011;9716;53.114;18.040;2023-06-10T06:02:36;3.65;;;1.92;;
19167;SDS011;9716;53.114;18.040;2023-06-10T06:05:05;4.25;;;1.63;;
19167;SDS011;9716;53.114;18.040;2023-06-10T06:07:36;4.03;;;2.20;;
19167;SDS011;9716;53.114;18.040;2023-06-10T06:10:05;3.03;;;1.98;;
19167;SDS011;9716;53.114;18.040;2023-06-10T06:12:34;3.15;;;1.83;;
19167;SDS011;9716;53.114;18.040;2023-06-10T06:15:03;6.50;;;2.50;;
19167;SDS011;9716;53.114;18.040;2023-06-10T06:17:32;3.20;;;1.92;;
19167;SDS011;9716;53.114;18.040;2023-06-10T06:20:01;5.82;;;2.47;;
19167;SDS011;9716;53.114;18.040;2023-06-10T06:22:30;4.25;;;1.65;;
19167;SDS011;9716;53.114;18.040;2023-06-10T06:25:00;3.15;;;1.70;;
19167;SDS011;9716;53.114;18.040;2023-06-10T06:27:29;27.95;;;2.08;;
19167;SDS011;9716;53.114;18.040;2023-06-10T06:29:58;3.95;;;2.10;;
19167;SDS011;9716;53.114;18.040;2023-06-10T06:32:28;2.13;;;1.60;;
19167;SDS011;9716;53.114;18.040;2023-06-10T06:34:56;8.52;;;2.10;;
19167;SDS011;9716;53.114;18.040;2023-06-10T06:37:25;3.13;;;2.25;;
19167;SDS011;9716;53.114;18.040;2023-06-10T06:39:54;4.55;;;2.08;;
19167;SDS011;9716;53.114;18.040;2023-06-10T06:42:24;5.05;;;2.30;;
19167;SDS011;9716;53.114;18.040;2023-06-10T06:44:53;3.30;;;2.10;;
19167;SDS011;9716;53.114;18.040;2023-06-10T06:47:22;3.92;;;1.92;;
19167;SDS011;9716;53.114;18.040;2023-06-10T06:49:51;3.03;;;2.08;;
19167;SDS011;9716;53.114;18.040;2023-06-10T06:52:20;6.80;;;2.65;;
19167;SDS011;9716;53.114;18.040;2023-06-10T06:54:49;6.10;;;1.77;;
19167;SDS011;9716;53.114;18.040;2023-06-10T06:57:18;2.50;;;1.65;;
19167;SDS011;9716;53.114;18.040;2023-06-10T06:59:47;2.90;;;1.98;;
19167;SDS011;9716;53.114;18.040;2023-06-10T07:02:16;5.90;;;2.13;;
19167;SDS011;9716;53.114;18.040;2023-06-10T07:04:45;5.07;;;1.83;;
19167;SDS011;9716;53.114;18.040;2023-06-10T07:07:16;4.00;;;1.95;;
19167;SDS011;9716;53.114;18.040;2023-06-10T07:09:44;5.13;;;2.33;;
19167;SDS011;9716;53.114;18.040;2023-06-10T07:12:13;6.20;;;2.17;;
19167;SDS011;9716;53.114;18.040;2023-06-10T07:14:41;4.82;;;2.25;;
19167;SDS011;9716;53.114;18.040;2023-06-10T07:17:12;11.13;;;2.03;;
19167;SDS011;9716;53.114;18.040;2023-06-10T07:19:40;16.65;;;2.25;;
19167;SDS011;9716;53.114;18.040;2023-06-10T07:22:09;4.65;;;1.95;;
19167;SDS011;9716;53.114;18.040;2023-06-10T07:24:37;6.03;;;2.08;;
19167;SDS011;9716;53.114;18.040;2023-06-10T07:27:06;4.32;;;1.83;;
19167;SDS011;9716;53.114;18.040;2023-06-10T07:29:35;7.38;;;2.10;;
19167;SDS011;9716;53.114;18.040;2023-06-10T07:32:04;2.35;;;1.70;;
19167;SDS011;9716;53.114;18.040;2023-06-10T07:34:34;2.80;;;1.85;;
19167;SDS011;9716;53.114;18.040;2023-06-10T07:37:02;2.65;;;1.70;;
19167;SDS011;9716;53.114;18.040;2023-06-10T07:39:31;3.03;;;1.67;;
19167;SDS011;9716;53.114;18.040;2023-06-10T07:42:00;3.17;;;1.98;;
19167;SDS011;9716;53.114;18.040;2023-06-10T07:44:28;2.47;;;1.63;;
19167;SDS011;9716;53.114;18.040;2023-06-10T07:46:57;20.17;;;1.83;;
19167;SDS011;9716;53.114;18.040;2023-06-10T07:49:26;10.02;;;2.03;;
19167;SDS011;9716;53.114;18.040;2023-06-10T07:51:56;4.60;;;2.33;;
19167;SDS011;9716;53.114;18.040;2023-06-10T07:54:24;7.18;;;2.15;;
19167;SDS011;9716;53.114;18.040;2023-06-10T07:56:56;3.75;;;2.28;;
19167;SDS011;9716;53.114;18.040;2023-06-10T07:59:24;12.75;;;2.10;;
19167;SDS011;9716;53.114;18.040;2023-06-10T08:01:53;8.68;;;3.13;;
19167;SDS011;9716;53.114;18.040;2023-06-10T08:04:22;14.38;;;2.10;;
19167;SDS011;9716;53.114;18.040;2023-06-10T08:06:51;5.65;;;2.60;;
19167;SDS011;9716;53.114;18.040;2023-06-10T08:09:21;15.63;;;2.00;;
19167;SDS011;9716;53.114;18.040;2023-06-10T08:11:50;5.70;;;2.00;;
19167;SDS011;9716;53.114;18.040;2023-06-10T08:14:18;5.53;;;1.63;;
19167;SDS011;9716;53.114;18.040;2023-06-10T08:16:47;11.90;;;2.10;;
19167;SDS011;9716;53.114;18.040;2023-06-10T08:19:16;2.95;;;1.38;;
19167;SDS011;9716;53.114;18.040;2023-06-10T08:21:45;8.13;;;1.52;;
19167;SDS011;9716;53.114;18.040;2023-06-10T08:24:13;8.15;;;2.20;;
19167;SDS011;9716;53.114;18.040;2023-06-10T08:26:47;6.80;;;2.35;;
19167;SDS011;9716;53.114;18.040;2023-06-10T08:29:15;8.75;;;1.85;;
19167;SDS011;9716;53.114;18.040;2023-06-10T08:31:44;5.70;;;2.05;;
19167;SDS011;9716;53.114;18.040;2023-06-10T08:34:12;4.05;;;2.60;;
19167;SDS011;9716;53.114;18.040;2023-06-10T08:36:43;2.72;;;2.20;;
19167;SDS011;9716;53.114;18.040;2023-06-10T08:39:12;5.95;;;2.15;;
19167;SDS011;9716;53.114;18.040;2023-06-10T08:41:43;6.13;;;2.40;;
19167;SDS011;9716;53.114;18.040;2023-06-10T08:44:16;8.38;;;2.30;;
19167;SDS011;9716;53.114;18.040;2023-06-10T08:46:50;3.30;;;1.92;;
19167;SDS011;9716;53.114;18.040;2023-06-10T08:49:19;3.92;;;1.75;;
19167;SDS011;9716;53.114;18.040;2023-06-10T08:51:55;12.77;;;2.20;;
19167;SDS011;9716;53.114;18.040;2023-06-10T08:54:28;4.10;;;1.90;;
19167;SDS011;9716;53.114;18.040;2023-06-10T08:57:01;3.53;;;1.83;;
19167;SDS011;9716;53.114;18.040;2023-06-10T08:59:35;10.52;;;2.30;;
19167;SDS011;9716;53.114;18.040;2023-06-10T09:02:05;2.95;;;2.03;;
19167;SDS011;9716;53.114;18.040;2023-06-10T09:04:36;3.75;;;1.95;;
19167;SDS011;9716;53.114;18.040;2023-06-10T09:07:05;3.03;;;1.92;;
19167;SDS011;9716;53.114;18.040;2023-06-10T09:09:34;18.10;;;2.92;;
19167;SDS011;9716;53.114;18.040;2023-06-10T09:12:04;4.70;;;2.00;;
19167;SDS011;9716;53.114;18.040;2023-06-10T09:14:33;2.92;;;1.80;;
19167;SDS011;9716;53.114;18.040;2023-06-10T09:17:04;4.55;;;1.80;;
19167;SDS011;9716;53.114;18.040;2023-06-10T09:19:33;2.33;;;1.70;;
19167;SDS011;9716;53.114;18.040;2023-06-10T09:22:04;3.08;;;1.70;;
19167;SDS011;9716;53.114;18.040;2023-06-10T09:24:33;10.25;;;2.17;;
19167;SDS011;9716;53.114;18.040;2023-06-10T09:27:03;5.68;;;1.60;;
19167;SDS011;9716;53.114;18.040;2023-06-10T09:29:40;4.93;;;1.92;;
19167;SDS011;9716;53.114;18.040;2023-06-10T09:32:16;9.20;;;2.88;;
19167;SDS011;9716;53.114;18.040;2023-06-10T09:34:46;4.20;;;1.63;;
19167;SDS011;9716;53.114;18.040;2023-06-10T09:37:19;10.68;;;2.08;;
19167;SDS011;9716;53.114;18.040;2023-06-10T09:40:01;2.78;;;1.63;;
19167;SDS011;9716;53.114;18.040;2023-06-10T09:42:32;3.85;;;1.85;;
19167;SDS011;9716;53.114;18.040;2023-06-10T09:45:02;3.65;;;2.20;;
19167;SDS011;9716;53.114;18.040;2023-06-10T09:47:33;3.08;;;1.77;;
19167;SDS011;9716;53.114;18.040;2023-06-10T09:50:02;15.98;;;2.10;;
19167;SDS011;9716;53.114;18.040;2023-06-10T09:52:35;4.22;;;2.22;;
19167;SDS011;9716;53.114;18.040;2023-06-10T09:55:07;14.07;;;2.33;;
19167;SDS011;9716;53.114;18.040;2023-06-10T09:57:37;5.32;;;1.95;;
19167;SDS011;9716;53.114;18.040;2023-06-10T10:00:08;23.17;;;3.25;;
19167;SDS011;9716;53.114;18.040;2023-06-10T10:02:47;5.65;;;2.25;;
19167;SDS011;9716;53.114;18.040;2023-06-10T10:05:17;5.63;;;2.05;;
19167;SDS011;9716;53.114;18.040;2023-06-10T10:07:47;7.63;;;2.22;;
19167;SDS011;9716;53.114;18.040;2023-06-10T10:10:16;20.42;;;2.53;;
19167;SDS011;9716;53.114;18.040;2023-06-10T10:12:46;6.25;;;2.05;;
19167;SDS011;9716;53.114;18.040;2023-06-10T10:15:16;34.13;;;4.70;;
19167;SDS011;9716;53.114;18.040;2023-06-10T10:17:48;21.08;;;3.40;;
19167;SDS011;9716;53.114;18.040;2023-06-10T10:20:24;6.97;;;1.83;;
19167;SDS011;9716;53.114;18.040;2023-06-10T10:22:57;4.95;;;1.92;;
19167;SDS011;9716;53.114;18.040;2023-06-10T10:25:29;2.47;;;1.70;;
19167;SDS011;9716;53.114;18.040;2023-06-10T10:28:06;4.05;;;1.85;;
19167;SDS011;9716;53.114;18.040;2023-06-10T10:30:39;4.03;;;1.33;;
19167;SDS011;9716;53.114;18.040;2023-06-10T10:33:12;9.85;;;2.65;;
19167;SDS011;9716;53.114;18.040;2023-06-10T10:35:45;5.97;;;1.98;;
19167;SDS011;9716;53.114;18.040;2023-06-10T10:38:15;9.18;;;1.95;;
19167;SDS011;9716;53.114;18.040;2023-06-10T10:40:44;4.30;;;1.70;;
19167;SDS011;9716;53.114;18.040;2023-06-10T10:43:14;2.58;;;1.60;;
19167;SDS011;9716;53.114;18.040;2023-06-10T10:45:45;4.10;;;2.20;;
19167;SDS011;9716;53.114;18.040;2023-06-10T10:48:15;4.15;;;1.38;;
19167;SDS011;9716;53.114;18.040;2023-06-10T10:50:46;2.65;;;1.40;;
19167;SDS011;9716;53.114;18.040;2023-06-10T10:53:25;5.95;;;1.90;;
19167;SDS011;9716;53.114;18.040;2023-06-10T10:56:00;7.07;;;2.25;;
19167;SDS011;9716;53.114;18.040;2023-06-10T10:58:33;19.23;;;4.18;;
19167;SDS011;9716;53.114;18.040;2023-06-10T11:01:10;11.80;;;2.50;;
19167;SDS011;9716;53.114;18.040;2023-06-10T11:03:44;16.85;;;2.35;;
19167;SDS011;9716;53.114;18.040;2023-06-10T11:06:14;2.13;;;1.60;;
19167;SDS011;9716;53.114;18.040;2023-06-10T11:08:47;6.95;;;2.00;;
19167;SDS011;9716;53.114;18.040;2023-06-10T11:11:18;5.22;;;1.98;;
19167;SDS011;9716;53.114;18.040;2023-06-10T11:13:58;2.70;;;1.42;;
19167;SDS011;9716;53.114;18.040;2023-06-10T11:16:37;3.50;;;2.17;;
19167;SDS011;9716;53.114;18.040;2023-06-10T11:19:09;7.20;;;2.15;;
19167;SDS011;9716;53.114;18.040;2023-06-10T11:21:58;7.93;;;2.00;;
19167;SDS011;9716;53.114;18.040;2023-06-10T11:24:28;2.95;;;1.73;;
19167;SDS011;9716;53.114;18.040;2023-06-10T11:29:57;4.22;;;1.90;;
19167;SDS011;9716;53.114;18.040;2023-06-10T11:32:44;4.90;;;1.98;;
19167;SDS011;9716;53.114;18.040;2023-06-10T11:35:20;9.60;;;1.77;;
19167;SDS011;9716;53.114;18.040;2023-06-10T11:37:51;2.13;;;1.40;;
19167;SDS011;9716;53.114;18.040;2023-06-10T11:40:20;5.60;;;2.22;;
19167;SDS011;9716;53.114;18.040;2023-06-10T11:42:50;3.42;;;1.65;;
19167;SDS011;9716;53.114;18.040;2023-06-10T11:45:21;2.30;;;1.52;;
19167;SDS011;9716;53.114;18.040;2023-06-10T11:47:56;19.20;;;2.47;;
19167;SDS011;9716;53.114;18.040;2023-06-10T11:50:29;5.22;;;2.00;;
19167;SDS011;9716;53.114;18.040;2023-06-10T11:52:58;3.15;;;1.73;;
19167;SDS011;9716;53.114;18.040;2023-06-10T11:55:39;6.43;;;2.33;;
19167;SDS011;9716;53.114;18.040;2023-06-10T11:58:12;18.75;;;2.42;;
19167;SDS011;9716;53.114;18.040;2023-06-10T12:00:45;6.50;;;1.83;;
19167;SDS011;9716;53.114;18.040;2023-06-10T12:03:14;11.10;;;2.03;;
19167;SDS011;9716;53.114;18.040;2023-06-10T12:05:58;2.30;;;1.42;;
19167;SDS011;9716;53.114;18.040;2023-06-10T12:08:27;4.35;;;2.03;;
19167;SDS011;9716;53.114;18.040;2023-06-10T12:10:57;12.18;;;1.83;;
19167;SDS011;9716;53.114;18.040;2023-06-10T12:13:26;10.55;;;1.65;;
19167;SDS011;9716;53.114;18.040;2023-06-10T12:16:05;10.15;;;2.47;;
19167;SDS011;9716;53.114;18.040;2023-06-10T12:18:34;2.80;;;1.77;;
19167;SDS011;9716;53.114;18.040;2023-06-10T12:21:05;6.90;;;1.70;;
19167;SDS011;9716;53.114;18.040;2023-06-10T12:23:59;5.00;;;1.52;;
19167;SDS011;9716;53.114;18.040;2023-06-10T12:26:42;3.45;;;1.98;;
19167;SDS011;9716;53.114;18.040;2023-06-10T12:29:18;3.70;;;1.42;;
19167;SDS011;9716;53.114;18.040;2023-06-10T12:31:53;2.95;;;1.73;;
19167;SDS011;9716;53.114;18.040;2023-06-10T12:34:27;4.95;;;2.03;;
19167;SDS011;9716;53.114;18.040;2023-06-10T12:37:06;2.55;;;1.70;;
19167;SDS011;9716;53.114;18.040;2023-06-10T12:39:40;2.13;;;1.73;;
19167;SDS011;9716;53.114;18.040;2023-06-10T12:42:09;3.28;;;1.52;;
19167;SDS011;9716;53.114;18.040;2023-06-10T12:44:39;2.95;;;1.25;;
19167;SDS011;9716;53.114;18.040;2023-06-10T12:47:09;1.52;;;1.27;;
19167;SDS011;9716;53.114;18.040;2023-06-10T12:49:39;4.28;;;1.27;;
19167;SDS011;9716;53.114;18.040;2023-06-10T12:52:09;3.55;;;1.65;;
19167;SDS011;9716;53.114;18.040;2023-06-10T12:54:38;3.78;;;1.75;;
19167;SDS011;9716;53.114;18.040;2023-06-10T12:57:06;4.78;;;1.55;;
19167;SDS011;9716;53.114;18.040;2023-06-10T12:59:36;3.00;;;1.67;;
19167;SDS011;9716;53.114;18.040;2023-06-10T13:02:05;8.88;;;1.73;;
19167;SDS011;9716;53.114;18.040;2023-06-10T13:04:34;3.42;;;1.52;;
19167;SDS011;9716;53.114;18.040;2023-06-10T13:07:03;20.40;;;1.58;;
19167;SDS011;9716;53.114;18.040;2023-06-10T13:09:33;2.15;;;1.35;;
19167;SDS011;9716;53.114;18.040;2023-06-10T13:12:02;5.35;;;2.17;;
19167;SDS011;9716;53.114;18.040;2023-06-10T13:14:32;4.43;;;1.70;;
19167;SDS011;9716;53.114;18.040;2023-06-10T13:17:01;3.72;;;1.88;;
19167;SDS011;9716;53.114;18.040;2023-06-10T13:19:29;3.30;;;1.33;;
19167;SDS011;9716;53.114;18.040;2023-06-10T13:21:58;7.00;;;1.27;;
19167;SDS011;9716;53.114;18.040;2023-06-10T13:24:28;3.08;;;1.30;;
19167;SDS011;9716;53.114;18.040;2023-06-10T13:26:58;3.47;;;1.73;;
19167;SDS011;9716;53.114;18.040;2023-06-10T13:29:26;5.72;;;1.90;;
19167;SDS011;9716;53.114;18.040;2023-06-10T13:31:54;2.40;;;1.45;;
19167;SDS011;9716;53.114;18.040;2023-06-10T13:34:23;2.75;;;1.45;;
19167;SDS011;9716;53.114;18.040;2023-06-10T13:36:52;3.03;;;1.60;;
19167;SDS011;9716;53.114;18.040;2023-06-10T13:39:20;3.20;;;1.70;;
19167;SDS011;9716;53.114;18.040;2023-06-10T13:41:49;4.40;;;1.80;;
19167;SDS011;9716;53.114;18.040;2023-06-10T13:44:20;2.72;;;1.63;;
19167;SDS011;9716;53.114;18.040;2023-06-10T13:46:48;8.30;;;1.20;;
19167;SDS011;9716;53.114;18.040;2023-06-10T13:49:17;3.60;;;1.77;;
19167;SDS011;9716;53.114;18.040;2023-06-10T13:51:46;2.67;;;1.20;;
19167;SDS011;9716;53.114;18.040;2023-06-10T13:54:15;3.72;;;1.90;;
19167;SDS011;9716;53.114;18.040;2023-06-10T13:56:43;2.70;;;1.38;;
19167;SDS011;9716;53.114;18.040;2023-06-10T13:59:12;2.60;;;1.45;;
19167;SDS011;9716;53.114;18.040;2023-06-10T14:01:42;3.92;;;1.95;;
19167;SDS011;9716;53.114;18.040;2023-06-10T14:04:11;21.75;;;2.03;;
19167;SDS011;9716;53.114;18.040;2023-06-10T14:06:40;2.50;;;1.38;;
19167;SDS011;9716;53.114;18.040;2023-06-10T14:09:09;2.47;;;1.52;;
19167;SDS011;9716;53.114;18.040;2023-06-10T14:11:38;4.55;;;1.30;;
19167;SDS011;9716;53.114;18.040;2023-06-10T14:14:07;1.73;;;1.17;;
19167;SDS011;9716;53.114;18.040;2023-06-10T14:16:36;2.33;;;1.45;;
19167;SDS011;9716;53.114;18.040;2023-06-10T14:19:10;1.80;;;1.20;;
19167;SDS011;9716;53.114;18.040;2023-06-10T14:21:41;10.88;;;2.10;;
19167;SDS011;9716;53.114;18.040;2023-06-10T14:24:10;4.28;;;1.52;;
19167;SDS011;9716;53.114;18.040;2023-06-10T14:26:39;3.42;;;1.38;;
19167;SDS011;9716;53.114;18.040;2023-06-10T14:29:07;1.83;;;1.20;;
19167;SDS011;9716;53.114;18.040;2023-06-10T14:31:36;3.50;;;1.55;;
19167;SDS011;9716;53.114;18.040;2023-06-10T14:34:05;1.40;;;1.00;;
19167;SDS011;9716;53.114;18.040;2023-06-10T14:36:37;6.93;;;1.15;;
19167;SDS011;9716;53.114;18.040;2023-06-10T14:39:06;1.35;;;0.95;;
19167;SDS011;9716;53.114;18.040;2023-06-10T14:41:35;2.30;;;1.05;;
19167;SDS011;9716;53.114;18.040;2023-06-10T14:44:03;5.22;;;1.73;;
19167;SDS011;9716;53.114;18.040;2023-06-10T14:46:33;5.95;;;1.75;;
19167;SDS011;9716;53.114;18.040;2023-06-10T14:49:02;1.90;;;1.10;;
19167;SDS011;9716;53.114;18.040;2023-06-10T14:51:31;1.45;;;1.20;;
19167;SDS011;9716;53.114;18.040;2023-06-10T14:54:04;1.30;;;1.02;;
19167;SDS011;9716;53.114;18.040;2023-06-10T14:56:33;3.50;;;1.38;;
19167;SDS011;9716;53.114;18.040;2023-06-10T14:59:01;2.50;;;1.25;;
19167;SDS011;9716;53.114;18.040;2023-06-10T15:01:30;1.33;;;0.93;;
19167;SDS011;9716;53.114;18.040;2023-06-10T15:03:58;3.63;;;1.35;;
19167;SDS011;9716;53.114;18.040;2023-06-10T15:06:27;9.55;;;1.60;;